Onslow Bay Outer, NC (41036)

Conditions for Friday

Daily
Weekly
Monthly
Marine Data Graph
Ad Blocker Enabled

Marine & Boating Location Search

Enter a coastal zip code for marine weather.

General Information

Location: 34.207 North -76.949 West
Buoy Type: 3-meter discus buoy
Buoy Hull: 3D32
Owned by: NDBC
Windspeed: Measured by obtained from anemometer
Sea Surface: Measured by Intake
Note: See the notice on loss of funding from the University of North Carolina, Wilmington for the old deployment of this station. For more information, please see the NWS Service Change Notice at http://www.nws.noaa.gov/om/notification/scn14-62buoy41036.htm

Weather and Wave Data

Time Temp Humidity Wind Dominant Wave Wind Wave Wave Swell Pressure
  Air
(°F)
Water
(°F)
  Dir Speed
(kts)
Speed
(mph)
Period
(sec)
Height
(ft)
Range
(ft)
Period
(sec)
Height
(ft)
Range
(ft)
Period
(sec)
Height
(ft)
Range
(ft)
Atmo.
(in)
Tend.
(in)
20:20 54 60 77 NE 17.5 20.1 - - - - - - 30.45 -
20:50 55 60 77 NE 19.4 22.4 6 4.59 exactly 4.6 6 4.92 4.10 - 5.74 9 1.64 0.82 - 2.46 30.45 -
21:20 55 60 81 NE 17.5 20.1 - - - - - - 30.45 -
21:50 56 60 83 NE 17.5 20.1 6 4.59 exactly 4.6 6 4.92 4.10 - 5.74 10 1.64 0.82 - 2.46 30.44 -0.01
22:20 56 60 83 NE 17.5 20.1 - - - - - - 30.44 -
22:50 56 60 84 NE 15.6 17.9 6 4.27 exactly 4.3 6 3.28 2.46 - 4.10 9 1.64 0.82 - 2.46 30.43 -0.02
23:20 56 60 86 NE 17.5 20.1 - - - - - - 30.43 -
23:50 56 60 90 NE 17.5 20.1 6 4.27 exactly 4.3 6 3.28 2.46 - 4.10 9 1.64 0.82 - 2.46 30.42 -0.04
00:20 56 60 91 NE 17.5 20.1 - - - - - - 30.41 -
00:50 57 60 90 NE 15.6 17.9 6 4.59 exactly 4.6 6 3.28 2.46 - 4.10 9 1.64 0.82 - 2.46 30.41 -0.03
01:20 57 60 92 NE 15.6 17.9 - - - - - - 30.40 -
01:50 57 60 92 NE 15.6 17.9 5 3.94 exactly 3.9 5 3.28 2.46 - 4.10 - - - 30.40 -0.03
02:20 58 60 92 ENE 13.6 15.7 - - - - - - 30.39 -
02:50 59 60 91 ENE 11.7 13.4 4 3.94 exactly 3.9 4 3.28 2.46 - 4.10 8 1.64 0.82 - 2.46 30.38 -0.04
03:20 59 60 93 ENE 9.7 11.2 - - - - - - 30.36 -
03:50 61 60 91 East 5.8 6.7 9 3.94 exactly 3.9 4 1.64 0.82 - 2.46 9 3.28 2.46 - 4.10 30.35 -0.05
04:20 64 60 79 SE 7.8 8.9 - - - - - - 30.34 -
04:50 64 60 79 SE 7.8 8.9 8 3.94 exactly 3.9 4 1.64 0.82 - 2.46 8 3.28 2.46 - 4.10 30.34 -0.06
05:20 64 60 81 SE 7.8 8.9 - - - - - - 30.34 -
05:50 64 60 79 SE 9.7 11.2 8 3.61 exactly 3.6 4 1.64 0.82 - 2.46 8 3.28 2.46 - 4.10 30.34 -0.04
06:20 64 60 80 SE 7.8 8.9 - - - - - - 30.34 -
06:50 65 60 75 SE 11.7 13.4 9 3.61 exactly 3.6 6 3.28 2.46 - 4.10 9 1.64 0.82 - 2.46 30.33 -0.02
07:20 64 60 79 SE 9.7 11.2 - - - - - - 30.34 -
07:50 64 60 77 ESE 7.8 8.9 8 3.61 exactly 3.6 4 1.64 0.82 - 2.46 8 3.28 2.46 - 4.10 30.35 +0.01
08:20 64 60 79 SE 9.7 11.2 - - - - - - 30.35 -
08:50 64 60 82 SE 9.7 11.2 9 3.28 exactly 3.3 4 1.64 0.82 - 2.46 9 3.28 2.46 - 4.10 30.35 +0.02
09:20 64 60 82 SE 9.7 11.2 - - - - - - 30.35 -
09:50 64 60 84 ESE 7.8 8.9 9 3.28 exactly 3.3 4 1.64 0.82 - 2.46 9 3.28 2.46 - 4.10 30.35 +0.02
10:20 65 60 82 SE 9.7 11.2 - - - - - - 30.35 -
10:50 66 60 80 SSE 11.7 13.4 9 3.61 exactly 3.6 6 3.28 2.46 - 4.10 9 1.64 0.82 - 2.46 30.32 -0.03
11:20 66 60 81 SSE 13.6 15.7 - - - - - - 30.30 -
11:50 67 60 79 SSE 11.7 13.4 9 3.94 exactly 3.9 5 3.28 2.46 - 4.10 9 3.28 2.46 - 4.10 30.29 -0.06
12:20 67 60 79 SSE 13.6 15.7 - - - - - - 30.27 -
12:50 67 60 80 SSE 13.6 15.7 5 4.27 exactly 4.3 5 3.28 2.46 - 4.10 7 1.64 0.82 - 2.46 30.25 -0.10
13:20 67 60 81 SSE 11.7 13.4 - - - - - - 30.26 -
13:50 66 60 86 SSE 11.7 13.4 6 4.59 exactly 4.6 6 3.28 2.46 - 4.10 7 3.28 2.46 - 4.10 30.25 -0.08
14:20 67 61 83 SSE 13.6 15.7 - - - - - - 30.23 -
14:50 66 61 90 South 5.8 6.7 6 4.59 exactly 4.6 4 1.64 0.82 - 2.46 6 4.92 4.10 - 5.74 30.23 -0.06
15:20 67 61 89 SSW 11.7 13.4 - - - - - - 30.23 -
15:50 66 61 94 SSW 13.6 15.7 5 4.59 exactly 4.6 5 3.28 2.46 - 4.10 8 1.64 0.82 - 2.46 30.22 -0.04
16:20 65 61 94 SSW 9.7 11.2 - - - - - - 30.22 -
16:50 66 61 90 SSW 9.7 11.2 5 5.58 exactly 5.6 4 3.28 2.46 - 4.10 5 4.92 4.10 - 5.74 30.21 -0.03
17:20 66 61 93 SSW 7.8 8.9 - - - - - - 30.21 -
17:50 65 62 97 SW 7.8 8.9 6 4.59 exactly 4.6 4 1.64 0.82 - 2.46 6 4.92 4.10 - 5.74 30.22 -0.01
18:20 66 62 94 SW 9.7 11.2 - - - - - - 30.22 -
18:50 66 62 91 SW 9.7 11.2 5 4.92 exactly 4.9 4 3.28 2.46 - 4.10 5 3.28 2.46 - 4.10 30.21 -0.01
19:20 66 62 90 SW 9.7 11.2 - - - - - - 30.21 -
19:50 66 62 90 SW 9.7 11.2 6 4.59 exactly 4.6 4 1.64 0.82 - 2.46 6 4.92 4.10 - 5.74 30.21 -
20:20 66 62 91 SW 7.8 8.9 - - - - - - 30.21 -
20:50 65 61 95 SW 7.8 8.9 6 4.92 exactly 4.9 4 1.64 0.82 - 2.46 6 4.92 4.10 - 5.74 30.21 -
21:20 65 61 94 SW 7.8 8.9 - - - - - - 30.21 -
21:50 65 61 96 SW 7.8 8.9 6 4.59 exactly 4.6 4 1.64 0.82 - 2.46 6 4.92 4.10 - 5.74 30.20 -0.01
22:20 65 61 93 SW 7.8 8.9 - - - - - - 30.19 -
23:20 64 61 97 WSW 7.8 8.9 - - - - - - 30.19 -
23:50 64 60 98 SW 7.8 8.9 6 3.94 exactly 3.9 4 1.64 0.82 - 2.46 6 3.28 2.46 - 4.10 30.19 -0.02
00:20 64 60 96 WSW 7.8 8.9 - - - - - - 30.19 -
00:50 64 60 96 SW 7.8 8.9 6 4.27 exactly 4.3 3 1.64 0.82 - 2.46 6 3.28 2.46 - 4.10 30.18 -0.02
01:20 63 60 99 WSW 5.8 6.7 - - - - - - 30.19 -
02:20 62 60 100 WSW 5.8 6.7 - - - - - - 30.19 -
02:50 62 60 100 SW 5.8 6.7 5 3.94 exactly 3.9 4 1.64 0.82 - 2.46 5 3.28 2.46 - 4.10 30.18 -0.01
03:20 63 60 98 WSW 7.8 8.9 - - - - - - 30.17 -
03:50 62 60 100 WSW 9.7 11.2 5 3.61 exactly 3.6 3 1.64 0.82 - 2.46 5 3.28 2.46 - 4.10 30.17 -0.01

Detailed Wave Spectra

Time Water Depth Wave Height Spectral Peak Period Average Wave Period Sampling Interval Wave Record
20:00 82 ft 4.63 ft 5.6 sec 4.6 sec 0.6 sec 2400 sec
21:00 82 ft 4.53 ft 6.3 sec 4.7 sec 0.6 sec 2400 sec
22:00 82 ft 4.59 ft 5.9 sec 4.7 sec 0.6 sec 2400 sec
23:00 82 ft 4.36 ft 5.9 sec 4.8 sec 0.6 sec 2400 sec
00:00 82 ft 4.27 ft 5.9 sec 4.7 sec 0.6 sec 2400 sec
02:00 82 ft 4.00 ft 4.5 sec 4.5 sec 0.6 sec 2400 sec
03:00 82 ft 3.87 ft 4.3 sec 4.5 sec 0.6 sec 2400 sec
04:00 82 ft 3.77 ft 9.1 sec 4.6 sec 0.6 sec 2400 sec
05:00 82 ft 3.84 ft 8.3 sec 4.6 sec 0.6 sec 2400 sec
06:00 82 ft 3.71 ft 8.3 sec 4.7 sec 0.6 sec 2400 sec
07:00 82 ft 3.51 ft 9.1 sec 4.7 sec 0.6 sec 2400 sec
08:00 82 ft 3.58 ft 8.3 sec 4.9 sec 0.6 sec 2400 sec
09:00 82 ft 3.35 ft 9.1 sec 5.0 sec 0.6 sec 2400 sec
11:00 82 ft 3.44 ft 9.1 sec 5.1 sec 0.6 sec 2400 sec
12:00 82 ft 3.81 ft 9.1 sec 5.0 sec 0.6 sec 2400 sec
13:00 82 ft 4.23 ft 5.0 sec 5.0 sec 0.6 sec 2400 sec
14:00 82 ft 4.53 ft 5.6 sec 4.9 sec 0.6 sec 2400 sec
15:00 82 ft 4.63 ft 5.9 sec 4.9 sec 0.6 sec 2400 sec
16:00 82 ft 4.49 ft 5.3 sec 4.7 sec 0.6 sec 2400 sec
17:00 82 ft 5.58 ft 5.3 sec 5.0 sec 0.6 sec 2400 sec
18:00 82 ft 4.72 ft 5.6 sec 5.0 sec 0.6 sec 2400 sec
19:00 82 ft 4.76 ft 5.3 sec 5.0 sec 0.6 sec 2400 sec
20:00 82 ft 4.69 ft 5.9 sec 5.3 sec 0.6 sec 2400 sec
22:00 82 ft 4.46 ft 5.9 sec 5.4 sec 0.6 sec 2400 sec
00:00 82 ft 4.07 ft 5.9 sec 5.4 sec 0.6 sec 2400 sec
02:00 82 ft 4.13 ft 5.3 sec 5.3 sec 0.6 sec 2400 sec